Time,TemperatureF,DewpointF,PressureIn,WindDirection,WindDirectionDegrees,WindSpeedMPH,WindSpeedGustMPH,Humidity,HourlyPrecipIn,Conditions,Clouds,dailyrainin,SoftwareType,DateUTC
2013-04-29 00:12:00,55.2,52.9,29.74,SSE,157,3.2,-999.0,92,-99.99,,,0.00,Acu-Link.com,2013-04-29 05:12:00,
2013-04-29 00:27:00,54.9,52.9,29.74,SSE,157,3.2,-999.0,93,-99.99,,,0.00,Acu-Link.com,2013-04-29 05:27:00,
2013-04-29 00:42:00,54.3,52.6,29.74,South,180,2.7,-999.0,94,-99.99,,,0.00,Acu-Link.com,2013-04-29 05:42:00,
2013-04-29 00:58:00,54.3,52.6,29.75,SSE,157,3.2,-999.0,94,-99.99,,,0.00,Acu-Link.com,2013-04-29 05:58:00,
2013-04-29 01:13:00,54.3,52.6,29.75,SSE,157,3.2,-999.0,94,-99.99,,,0.00,Acu-Link.com,2013-04-29 06:13:00,
2013-04-29 01:28:00,53.8,52.1,29.75,SSE,157,3.2,-999.0,94,-99.99,,,0.00,Acu-Link.com,2013-04-29 06:28:00,
2013-04-29 01:43:00,54.1,52.1,29.75,SSE,157,3.7,-999.0,93,-99.99,,,0.00,Acu-Link.com,2013-04-29 06:43:00,
2013-04-29 01:58:00,53.8,51.8,29.74,South,180,2.7,-999.0,93,-99.99,,,0.00,Acu-Link.com,2013-04-29 06:58:00,
2013-04-29 02:13:00,54.3,52.0,29.74,SSE,157,4.2,-999.0,92,-99.99,,,0.00,Acu-Link.com,2013-04-29 07:13:00,
2013-04-29 02:29:00,54.5,52.2,29.74,SSE,157,4.2,-999.0,92,-99.99,,,0.00,Acu-Link.com,2013-04-29 07:29:00,
2013-04-29 02:44:00,54.3,52.0,29.73,South,180,3.2,-999.0,92,-99.99,,,0.00,Acu-Link.com,2013-04-29 07:44:00,
2013-04-29 02:59:00,54.5,51.9,29.73,SSE,157,3.7,-999.0,91,-99.99,,,0.00,Acu-Link.com,2013-04-29 07:59:00,
2013-04-29 03:14:00,54.5,51.6,29.73,South,180,3.2,-999.0,90,-99.99,,,0.00,Acu-Link.com,2013-04-29 08:14:00,
2013-04-29 03:29:00,54.7,51.5,29.73,SSE,157,3.2,-999.0,89,-99.99,,,0.00,Acu-Link.com,2013-04-29 08:29:00,
2013-04-29 03:44:00,55.6,51.8,29.72,South,180,4.7,-999.0,87,-99.99,,,0.00,Acu-Link.com,2013-04-29 08:44:00,
2013-04-29 03:59:00,55.6,51.8,29.72,SE,135,4.2,-999.0,87,-99.99,,,0.00,Acu-Link.com,2013-04-29 08:59:00,
2013-04-29 04:14:00,55.8,52.0,29.73,SSE,157,4.2,-999.0,87,-99.99,,,0.00,Acu-Link.com,2013-04-29 09:14:00,
2013-04-29 04:29:00,55.4,52.2,29.73,South,180,4.2,-999.0,89,-99.99,,,0.00,Acu-Link.com,2013-04-29 09:29:00,
2013-04-29 04:45:00,55.4,51.9,29.73,SSW,202,6.8,-999.0,88,-99.99,,,0.00,Acu-Link.com,2013-04-29 09:45:00,
2013-04-29 05:00:00,55.6,52.1,29.73,South,180,5.8,-999.0,88,-99.99,,,0.00,Acu-Link.com,2013-04-29 10:00:00,
2013-04-29 05:15:00,55.8,52.3,29.73,SSW,202,6.3,-999.0,88,-99.99,,,0.00,Acu-Link.com,2013-04-29 10:15:00,
2013-04-29 05:30:00,55.6,52.1,29.73,South,180,7.8,-999.0,88,-99.99,,,0.00,Acu-Link.com,2013-04-29 10:30:00,
2013-04-29 05:45:00,56.1,52.6,29.73,SSW,202,5.8,-999.0,88,-99.99,,,0.00,Acu-Link.com,2013-04-29 10:45:00,
2013-04-29 06:00:00,56.1,52.9,29.73,SW,225,5.8,-999.0,89,-99.99,,,0.00,Acu-Link.com,2013-04-29 11:00:00,
2013-04-29 06:15:00,55.6,52.7,29.74,SSW,202,4.2,-999.0,90,-99.99,,,0.00,Acu-Link.com,2013-04-29 11:15:00,
2013-04-29 06:30:00,55.6,53.0,29.74,South,180,5.3,-999.0,91,-99.99,,,0.00,Acu-Link.com,2013-04-29 11:30:00,
2013-04-29 06:45:00,55.6,53.0,29.74,South,180,5.8,-999.0,91,-99.99,,,0.00,Acu-Link.com,2013-04-29 11:45:00,
2013-04-29 07:01:00,57.7,54.2,29.74,SSW,202,5.3,-999.0,88,-99.99,,,0.00,Acu-Link.com,2013-04-29 12:01:00,
2013-04-29 07:16:00,58.6,55.1,29.74,SSW,202,5.8,-999.0,88,-99.99,,,0.00,Acu-Link.com,2013-04-29 12:16:00,
2013-04-29 07:31:00,59.2,55.3,29.74,South,180,7.3,-999.0,87,-99.99,,,0.00,Acu-Link.com,2013-04-29 12:31:00,
2013-04-29 07:46:00,61.0,56.1,29.74,South,180,13.0,-999.0,84,-99.99,,,0.00,Acu-Link.com,2013-04-29 12:46:00,
2013-04-29 08:01:00,61.9,57.0,29.74,South,180,8.9,-999.0,84,-99.99,,,0.00,Acu-Link.com,2013-04-29 13:01:00,
2013-04-29 08:16:00,63.7,58.4,29.74,South,180,8.9,-999.0,83,-99.99,,,0.00,Acu-Link.com,2013-04-29 13:16:00,
2013-04-29 08:31:00,65.3,59.3,29.73,South,180,7.3,-999.0,81,-99.99,,,0.00,Acu-Link.com,2013-04-29 13:31:00,
2013-04-29 08:46:00,66.9,60.9,29.73,SW,225,8.3,-999.0,81,-99.99,,,0.00,Acu-Link.com,2013-04-29 13:46:00,
2013-04-29 09:01:00,68.2,61.8,29.72,SSW,202,6.8,-999.0,80,-99.99,,,0.00,Acu-Link.com,2013-04-29 14:01:00,
2013-04-29 09:17:00,67.8,61.4,29.71,SSW,202,6.8,-999.0,80,-99.99,,,0.00,Acu-Link.com,2013-04-29 14:17:00,
2013-04-29 09:32:00,68.5,62.1,29.71,SSW,202,8.3,-999.0,80,-99.99,,,0.00,Acu-Link.com,2013-04-29 14:32:00,
2013-04-29 09:47:00,70.0,63.5,29.70,SSW,202,10.4,-999.0,80,-99.99,,,0.00,Acu-Link.com,2013-04-29 14:47:00,
2013-04-29 10:02:00,70.7,63.9,29.70,SSW,202,9.9,-999.0,79,-99.99,,,0.00,Acu-Link.com,2013-04-29 15:02:00,
2013-04-29 10:17:00,71.8,64.6,29.70,SSW,202,10.4,-999.0,78,-99.99,,,0.00,Acu-Link.com,2013-04-29 15:17:00,
2013-04-29 10:32:00,73.6,65.9,29.68,South,180,13.0,-999.0,77,-99.99,,,0.00,Acu-Link.com,2013-04-29 15:32:00,
2013-04-29 10:47:00,73.9,66.2,29.68,SW,225,6.3,-999.0,77,-99.99,,,0.00,Acu-Link.com,2013-04-29 15:47:00,
2013-04-29 11:02:00,74.7,66.2,29.68,South,180,11.4,-999.0,75,-99.99,,,0.00,Acu-Link.com,2013-04-29 16:02:00,
2013-04-29 11:18:00,74.7,66.2,29.68,South,180,8.3,-999.0,75,-99.99,,,0.00,Acu-Link.com,2013-04-29 16:18:00,
2013-04-29 11:33:00,75.6,67.5,29.66,South,180,13.5,-999.0,76,-99.99,,,0.00,Acu-Link.com,2013-04-29 16:33:00,
2013-04-29 11:48:00,76.1,66.8,29.66,SSW,202,14.0,-999.0,73,-99.99,,,0.00,Acu-Link.com,2013-04-29 16:48:00,
2013-04-29 12:03:00,76.1,66.8,29.66,South,180,16.6,-999.0,73,-99.99,,,0.00,Acu-Link.com,2013-04-29 17:03:00,
2013-04-29 12:18:00,76.3,67.0,29.65,South,180,14.5,-999.0,73,-99.99,,,0.00,Acu-Link.com,2013-04-29 17:18:00,
2013-04-29 12:33:00,77.0,67.3,29.64,South,180,16.1,-999.0,72,-99.99,,,0.00,Acu-Link.com,2013-04-29 17:33:00,
2013-04-29 12:48:00,77.9,67.7,29.64,SSW,202,10.4,-999.0,71,-99.99,,,0.00,Acu-Link.com,2013-04-29 17:48:00,
2013-04-29 13:03:00,79.2,67.7,29.64,SW,225,5.8,-999.0,68,-99.99,,,0.00,Acu-Link.com,2013-04-29 18:03:00,
2013-04-29 13:18:00,79.2,67.7,29.63,SSW,202,13.5,-999.0,68,-99.99,,,0.00,Acu-Link.com,2013-04-29 18:18:00,
2013-04-29 13:34:00,79.5,68.8,29.62,South,180,11.9,-999.0,70,-99.99,,,0.00,Acu-Link.com,2013-04-29 18:34:00,
2013-04-29 13:49:00,79.7,67.8,29.61,SSW,202,18.6,-999.0,67,-99.99,,,0.00,Acu-Link.com,2013-04-29 18:49:00,
2013-04-29 14:04:00,81.0,69.4,29.61,SSW,202,13.5,-999.0,68,-99.99,,,0.00,Acu-Link.com,2013-04-29 19:04:00,
2013-04-29 14:19:00,81.0,68.1,29.61,SW,225,13.0,-999.0,65,-99.99,,,0.00,Acu-Link.com,2013-04-29 19:19:00,
2013-04-29 14:34:00,80.8,68.4,29.60,South,180,15.0,-999.0,66,-99.99,,,0.00,Acu-Link.com,2013-04-29 19:34:00,
2013-04-29 14:49:00,82.4,69.0,29.59,SSW,202,8.9,-999.0,64,-99.99,,,0.00,Acu-Link.com,2013-04-29 19:49:00,
2013-04-29 15:04:00,81.7,68.8,29.59,South,180,11.9,-999.0,65,-99.99,,,0.00,Acu-Link.com,2013-04-29 20:04:00,
2013-04-29 15:19:00,82.0,68.6,29.58,SW,225,10.4,-999.0,64,-99.99,,,0.00,Acu-Link.com,2013-04-29 20:19:00,
2013-04-29 15:35:00,82.6,68.2,29.57,SSW,202,8.9,-999.0,62,-99.99,,,0.00,Acu-Link.com,2013-04-29 20:35:00,
2013-04-29 15:50:00,82.6,69.2,29.57,South,180,12.5,-999.0,64,-99.99,,,0.00,Acu-Link.com,2013-04-29 20:50:00,
2013-04-29 16:05:00,82.4,68.0,29.56,South,180,15.5,-999.0,62,-99.99,,,0.00,Acu-Link.com,2013-04-29 21:05:00,
2013-04-29 16:20:00,83.3,68.4,29.56,SSW,202,14.0,-999.0,61,-99.99,,,0.00,Acu-Link.com,2013-04-29 21:20:00,
2013-04-29 16:35:00,82.8,67.9,29.55,SSW,202,10.4,-999.0,61,-99.99,,,0.00,Acu-Link.com,2013-04-29 21:35:00,
2013-04-29 16:50:00,82.4,67.6,29.55,South,180,15.5,-999.0,61,-99.99,,,0.00,Acu-Link.com,2013-04-29 21:50:00,
2013-04-29 17:05:00,82.4,67.6,29.55,South,180,15.5,-999.0,61,-99.99,,,0.00,Acu-Link.com,2013-04-29 22:05:00,
2013-04-29 17:20:00,82.2,66.9,29.55,South,180,18.6,-999.0,60,-99.99,,,0.00,Acu-Link.com,2013-04-29 22:20:00,
2013-04-29 17:35:00,81.7,67.4,29.55,SSW,202,11.4,-999.0,62,-99.99,,,0.00,Acu-Link.com,2013-04-29 22:35:00,
2013-04-29 17:51:00,81.1,67.3,29.55,SSW,202,18.1,-999.0,63,-99.99,,,0.00,Acu-Link.com,2013-04-29 22:51:00,
2013-04-29 18:06:00,80.4,68.0,29.54,SSW,202,10.9,-999.0,66,-99.99,,,0.00,Acu-Link.com,2013-04-29 23:06:00,
2013-04-29 18:21:00,80.1,67.7,29.54,South,180,8.9,-999.0,66,-99.99,,,0.00,Acu-Link.com,2013-04-29 23:21:00,
2013-04-29 18:36:00,79.7,67.8,29.53,South,180,7.8,-999.0,67,-99.99,,,0.00,Acu-Link.com,2013-04-29 23:36:00,
2013-04-29 18:51:00,79.3,67.4,29.54,South,180,15.0,-999.0,67,-99.99,,,0.00,Acu-Link.com,2013-04-29 23:51:00,
2013-04-29 19:06:00,78.8,66.9,29.54,South,180,9.4,-999.0,67,-99.99,,,0.00,Acu-Link.com,2013-04-30 00:06:00,
2013-04-29 19:21:00,78.6,67.1,29.54,SSW,202,10.4,-999.0,68,-99.99,,,0.00,Acu-Link.com,2013-04-30 00:21:00,
2013-04-29 19:36:00,77.4,66.8,29.55,SW,225,6.3,-999.0,70,-99.99,,,0.00,Acu-Link.com,2013-04-30 00:36:00,
2013-04-29 19:51:00,76.8,65.8,29.54,South,180,7.8,-999.0,69,-99.99,,,0.00,Acu-Link.com,2013-04-30 00:51:00,
2013-04-29 20:07:00,75.9,65.4,29.55,SSE,157,7.8,-999.0,70,-99.99,,,0.00,Acu-Link.com,2013-04-30 01:07:00,
2013-04-29 20:22:00,75.0,64.9,29.55,SSW,202,8.3,-999.0,71,-99.99,,,0.00,Acu-Link.com,2013-04-30 01:22:00,
2013-04-29 20:37:00,74.8,64.8,29.55,South,180,11.4,-999.0,71,-99.99,,,0.00,Acu-Link.com,2013-04-30 01:37:00,
2013-04-29 20:52:00,74.3,64.7,29.55,SSW,202,9.4,-999.0,72,-99.99,,,0.00,Acu-Link.com,2013-04-30 01:52:00,
2013-04-29 21:07:00,73.9,64.3,29.56,SSW,202,8.3,-999.0,72,-99.99,,,0.00,Acu-Link.com,2013-04-30 02:07:00,
2013-04-29 21:22:00,73.2,64.0,29.56,SSW,202,7.8,-999.0,73,-99.99,,,0.00,Acu-Link.com,2013-04-30 02:22:00,
2013-04-29 21:37:00,71.6,63.6,29.57,SSW,202,4.7,-999.0,76,-99.99,,,0.00,Acu-Link.com,2013-04-30 02:37:00,
2013-04-29 21:52:00,71.1,63.5,29.57,SSW,202,8.9,-999.0,77,-99.99,,,0.00,Acu-Link.com,2013-04-30 02:52:00,
2013-04-29 22:08:00,72.0,63.6,29.56,SSW,202,10.4,-999.0,75,-99.99,,,0.00,Acu-Link.com,2013-04-30 03:08:00,
2013-04-29 22:23:00,71.2,63.2,29.56,SSW,202,7.3,-999.0,76,-99.99,,,0.00,Acu-Link.com,2013-04-30 03:23:00,
2013-04-29 22:38:00,71.1,63.1,29.57,SSW,202,8.9,-999.0,76,-99.99,,,0.00,Acu-Link.com,2013-04-30 03:38:00,
2013-04-29 22:53:00,71.2,62.9,29.55,SSE,157,14.0,-999.0,75,-99.99,,,0.00,Acu-Link.com,2013-04-30 03:53:00,
2013-04-29 23:08:00,72.0,62.9,29.56,South,180,14.5,-999.0,73,-99.99,,,0.00,Acu-Link.com,2013-04-30 04:08:00,
2013-04-29 23:23:00,71.6,62.5,29.56,South,180,13.0,-999.0,73,-99.99,,,0.00,Acu-Link.com,2013-04-30 04:23:00,
2013-04-29 23:38:00,71.8,62.3,29.57,SSW,202,13.5,-999.0,72,-99.99,,,0.00,Acu-Link.com,2013-04-30 04:38:00,
2013-04-29 23:53:00,71.8,61.9,29.57,SSW,202,12.5,-999.0,71,-99.99,,,0.00,Acu-Link.com,2013-04-30 04:53:00,